createdAt,value
2022-08-03T00:01:30.735Z,22.13
2022-08-03T00:03:58.304Z,22.07
2022-08-03T00:06:25.865Z,22.18
2022-08-03T00:08:53.626Z,21.92
2022-08-03T00:11:21.311Z,22.04
2022-08-03T00:13:48.775Z,21.86
2022-08-03T00:16:17.217Z,22.03
2022-08-03T00:18:44.819Z,22.02
2022-08-03T00:21:12.234Z,21.93
2022-08-03T00:23:52.395Z,22.14
2022-08-03T00:26:23.495Z,22.21
2022-08-03T00:28:51.023Z,22.14
2022-08-03T00:31:40.257Z,21.85
2022-08-03T00:34:05.991Z,21.91
2022-08-03T00:36:34.667Z,21.82
2022-08-03T00:39:02.021Z,21.94
2022-08-03T00:41:29.536Z,22.08
2022-08-03T00:43:56.936Z,21.90
2022-08-03T00:46:24.419Z,21.56
2022-08-03T00:48:52.252Z,21.60
2022-08-03T00:51:20.221Z,21.65
2022-08-03T00:53:48.139Z,21.67
2022-08-03T00:56:15.852Z,21.70
2022-08-03T00:58:46.293Z,21.88
2022-08-03T01:01:13.919Z,21.97
2022-08-03T01:03:41.456Z,21.90
2022-08-03T01:06:13.556Z,21.90
2022-08-03T01:08:47.932Z,22.10
2022-08-03T01:11:36.787Z,21.86
2022-08-03T01:14:54.117Z,21.92
2022-08-03T01:17:24.563Z,21.96
2022-08-03T01:19:57.979Z,22.08
2022-08-03T01:22:31.498Z,22.03
2022-08-03T01:25:17.471Z,22.04
2022-08-03T01:27:57.172Z,22.00
2022-08-03T01:30:25.805Z,22.06
2022-08-03T01:33:02.121Z,22.04
2022-08-03T01:35:38.829Z,21.98
2022-08-03T01:38:18.483Z,21.98
2022-08-03T01:40:47.095Z,21.99
2022-08-03T01:43:15.418Z,21.77
2022-08-03T01:46:03.128Z,21.85
2022-08-03T01:48:30.600Z,21.83
2022-08-03T01:50:58.076Z,21.83
2022-08-03T01:53:25.613Z,21.92
2022-08-03T01:55:54.020Z,21.91
2022-08-03T01:58:21.495Z,21.81
2022-08-03T02:00:49.416Z,21.85
2022-08-03T02:03:16.865Z,21.79
2022-08-03T02:05:45.223Z,21.70
2022-08-03T02:08:13.291Z,21.67
2022-08-03T02:10:41.328Z,21.73
2022-08-03T02:13:09.116Z,21.58
2022-08-03T02:15:37.194Z,21.49
2022-08-03T02:18:05.491Z,21.49
2022-08-03T02:20:33.335Z,21.55
2022-08-03T02:23:00.856Z,21.49
2022-08-03T02:25:28.457Z,21.55
2022-08-03T02:27:56.794Z,21.40
2022-08-03T02:30:29.287Z,21.42
2022-08-03T02:32:57.019Z,21.48
2022-08-03T02:35:24.905Z,21.28
2022-08-03T02:37:52.978Z,21.22
2022-08-03T02:40:20.609Z,21.18
2022-08-03T02:42:48.820Z,21.18
2022-08-03T02:45:16.239Z,21.11
2022-08-03T02:47:54.414Z,21.13
2022-08-03T02:50:23.044Z,21.18
2022-08-03T02:52:50.515Z,21.29
2022-08-03T02:55:17.944Z,21.26
2022-08-03T02:57:45.440Z,21.29
2022-08-03T03:00:12.907Z,21.30
2022-08-03T03:02:47.143Z,21.10
2022-08-03T03:05:53.294Z,21.26
2022-08-03T03:08:02.145Z,21.30
2022-08-03T03:10:29.997Z,21.21
2022-08-03T03:12:58.288Z,21.28
2022-08-03T03:15:26.174Z,21.37
2022-08-03T03:17:53.803Z,21.46
2022-08-03T03:20:28.895Z,21.30
2022-08-03T03:23:00.970Z,21.39
2022-08-03T03:25:29.188Z,21.37
2022-08-03T03:27:56.619Z,21.42
2022-08-03T03:30:25.291Z,21.54
2022-08-03T03:32:53.111Z,21.49
2022-08-03T03:35:20.502Z,21.59
2022-08-03T03:37:47.874Z,21.41
2022-08-03T03:40:15.286Z,21.38
2022-08-03T03:42:42.642Z,21.33
2022-08-03T03:45:10.450Z,21.41
2022-08-03T03:47:37.933Z,21.50
2022-08-03T03:50:05.729Z,21.39
2022-08-03T03:52:33.356Z,21.22
2022-08-03T03:55:01.580Z,21.31
2022-08-03T03:57:29.753Z,21.48
2022-08-03T03:59:57.175Z,21.63
2022-08-03T04:02:24.656Z,21.62
2022-08-03T04:05:10.527Z,21.59
2022-08-03T04:08:04.682Z,21.67
2022-08-03T04:10:50.783Z,21.73
2022-08-03T04:13:18.339Z,21.53
2022-08-03T04:15:45.962Z,21.69
2022-08-03T04:18:13.963Z,21.52
2022-08-03T04:20:41.460Z,21.64
2022-08-03T04:23:13.596Z,21.79
2022-08-03T04:25:43.157Z,21.93
2022-08-03T04:28:31.202Z,21.81
2022-08-03T04:30:58.151Z,21.61
2022-08-03T04:33:29.411Z,21.91
2022-08-03T04:36:02.566Z,21.93
2022-08-03T04:38:36.767Z,21.90
2022-08-03T04:41:04.251Z,22.39
2022-08-03T04:43:32.150Z,22.36
2022-08-03T04:45:59.627Z,22.67
2022-08-03T04:48:26.968Z,22.72
2022-08-03T04:50:54.332Z,23.05
2022-08-03T04:53:21.780Z,23.18
2022-08-03T04:55:49.188Z,23.26
2022-08-03T04:58:16.623Z,23.46
2022-08-03T15:46:44.483Z,25.74
2022-08-03T15:49:12.013Z,25.78
2022-08-03T15:51:39.543Z,25.78
2022-08-03T15:54:07.158Z,25.65
2022-08-03T15:56:34.612Z,25.67
2022-08-03T15:59:12.621Z,25.65
2022-08-03T16:01:41.440Z,25.27
2022-08-03T16:04:09.028Z,25.02
2022-08-03T16:06:36.743Z,24.89
2022-08-03T16:09:05.589Z,24.74
2022-08-03T16:11:52.212Z,24.90
2022-08-03T16:14:32.239Z,25.02
2022-08-03T16:17:05.476Z,25.16
2022-08-03T16:19:33.008Z,24.97
2022-08-03T16:22:01.147Z,24.83
2022-08-03T16:24:28.582Z,24.74
2022-08-03T16:26:56.388Z,24.77
2022-08-03T16:29:24.170Z,24.70
2022-08-03T16:31:52.527Z,24.77
2022-08-03T16:34:20.277Z,24.77
2022-08-03T16:36:47.810Z,24.90
2022-08-03T16:39:15.486Z,24.78
2022-08-03T16:42:00.582Z,24.73
2022-08-03T16:44:29.647Z,24.65
2022-08-03T16:46:57.299Z,24.69
2022-08-03T16:49:53.049Z,24.64
2022-08-03T16:52:12.958Z,24.62
2022-08-03T16:54:40.862Z,24.48
2022-08-03T16:57:08.573Z,24.49
2022-08-03T16:59:37.056Z,24.32
2022-08-03T17:02:09.702Z,24.31
2022-08-03T17:04:40.283Z,24.27
2022-08-03T17:07:08.792Z,24.12
2022-08-03T17:09:38.240Z,24.23
2022-08-03T17:12:07.625Z,24.10
2022-08-03T17:14:38.699Z,24.03
2022-08-03T17:17:07.329Z,24.01
2022-08-03T17:19:39.644Z,24.16
2022-08-03T17:22:15.940Z,24.09
2022-08-03T17:24:47.332Z,24.05
2022-08-03T17:28:41.834Z,23.96
2022-08-03T17:30:07.719Z,24.16
2022-08-03T17:32:42.124Z,24.11
2022-08-03T17:35:10.680Z,24.08
2022-08-03T17:37:57.677Z,24.09
2022-08-03T17:40:25.940Z,24.23
2022-08-03T17:42:54.445Z,24.44
2022-08-03T17:45:21.930Z,24.27
2022-08-03T17:47:57.271Z,24.30
2022-08-03T17:50:42.900Z,24.41
2022-08-03T17:53:23.997Z,24.43
2022-08-03T17:55:59.641Z,24.47
2022-08-03T17:58:55.822Z,26.70
2022-08-03T18:02:06.218Z,28.10
2022-08-03T18:04:40.617Z,28.65
2022-08-03T18:07:11.335Z,28.56
2022-08-03T18:10:06.742Z,28.66
2022-08-03T18:12:29.097Z,28.99
2022-08-03T18:15:01.310Z,29.29
2022-08-03T18:17:55.520Z,29.28
2022-08-03T18:20:34.246Z,27.39
2022-08-03T18:23:06.351Z,26.47
2022-08-03T18:25:45.741Z,25.51
2022-08-03T18:28:18.865Z,25.32
2022-08-03T18:30:53.894Z,25.23
2022-08-03T18:34:16.799Z,24.89
2022-08-03T18:36:17.974Z,24.68
2022-08-03T18:38:51.894Z,24.73
2022-08-03T18:41:32.303Z,24.67
2022-08-03T18:44:08.046Z,24.27
2022-08-03T18:46:49.610Z,24.17
2022-08-03T18:49:17.221Z,24.45
2022-08-03T18:51:47.028Z,24.44
2022-08-03T18:54:45.908Z,24.34
2022-08-03T18:57:09.157Z,24.18
2022-08-03T18:59:52.192Z,24.01
2022-08-03T19:02:20.340Z,24.10
2022-08-03T19:04:48.384Z,24.20
2022-08-03T19:07:23.279Z,24.22
2022-08-03T19:09:54.816Z,24.05
2022-08-03T19:12:30.809Z,23.86
2022-08-03T19:15:13.366Z,23.75
2022-08-03T19:17:42.304Z,24.05
2022-08-03T19:20:21.609Z,24.06
2022-08-03T19:22:51.205Z,24.04
2022-08-03T19:25:19.104Z,24.11
2022-08-03T19:27:47.172Z,24.10
2022-08-03T19:30:35.884Z,24.01
2022-08-03T19:33:07.555Z,23.98
2022-08-03T19:35:54.868Z,24.02
2022-08-03T19:38:29.211Z,23.95
2022-08-03T19:40:59.527Z,23.99
2022-08-03T19:43:32.993Z,23.63
2022-08-03T19:46:17.197Z,23.68
2022-08-03T19:48:48.575Z,23.56
2022-08-03T19:51:16.465Z,23.76
2022-08-03T19:53:45.213Z,23.83
2022-08-03T19:56:14.366Z,23.86
2022-08-03T19:58:43.562Z,23.65
2022-08-03T20:01:19.253Z,23.65
2022-08-03T20:03:48.220Z,23.46
2022-08-03T20:06:16.941Z,23.46
2022-08-03T20:08:45.050Z,23.53
2022-08-03T20:11:15.805Z,23.38
2022-08-03T20:13:44.727Z,23.47
2022-08-03T20:16:15.988Z,23.17
2022-08-03T20:18:43.667Z,23.18
2022-08-03T20:21:14.888Z,23.22
2022-08-03T20:24:01.815Z,23.17
2022-08-03T20:26:31.261Z,23.06
2022-08-03T20:29:08.975Z,23.08
2022-08-03T20:31:37.771Z,23.19
2022-08-03T20:34:05.632Z,23.13
2022-08-03T20:36:33.137Z,23.12
2022-08-03T20:39:00.890Z,23.18
2022-08-03T20:41:30.611Z,23.09
2022-08-03T20:44:00.986Z,22.99
2022-08-03T20:46:30.833Z,23.07
2022-08-03T20:49:04.313Z,23.10
2022-08-03T20:51:50.030Z,22.99
2022-08-03T20:54:20.999Z,22.92
2022-08-03T20:56:56.826Z,22.75
2022-08-03T20:59:24.540Z,22.61
2022-08-03T21:01:52.447Z,22.62
2022-08-03T21:04:22.299Z,22.61
2022-08-03T21:06:53.498Z,22.62
2022-08-03T21:09:22.836Z,22.64
2022-08-03T21:11:50.648Z,22.53
2022-08-03T21:14:32.456Z,22.56
2022-08-03T21:16:59.859Z,22.72
2022-08-03T21:19:27.287Z,22.48
2022-08-03T21:21:54.887Z,22.46
2022-08-03T21:24:24.298Z,22.69
2022-08-03T21:26:52.394Z,22.58
2022-08-03T21:29:20.230Z,22.13
2022-08-03T21:31:48.471Z,21.97
2022-08-03T21:34:15.992Z,22.31
2022-08-03T21:36:43.872Z,22.02
2022-08-03T21:39:11.308Z,22.11
2022-08-03T21:41:39.195Z,22.37
2022-08-03T21:44:07.205Z,22.40
2022-08-03T21:46:38.308Z,22.21
2022-08-03T21:50:04.711Z,22.31
2022-08-03T21:51:54.217Z,22.10
2022-08-03T21:54:21.825Z,22.00
2022-08-03T21:56:49.389Z,22.08
2022-08-03T21:59:17.414Z,22.23
2022-08-03T22:01:45.733Z,22.10
2022-08-03T22:04:37.245Z,22.31
2022-08-03T22:07:05.790Z,22.37
2022-08-03T22:09:35.385Z,22.39
2022-08-03T22:12:04.850Z,22.28
2022-08-03T22:14:32.800Z,22.04
2022-08-03T22:17:00.782Z,22.20
2022-08-03T22:19:34.740Z,22.26
2022-08-03T22:22:04.683Z,22.18
2022-08-03T22:24:32.813Z,22.26
2022-08-03T22:27:19.256Z,22.41
2022-08-03T22:29:47.150Z,22.26
2022-08-03T22:32:14.518Z,22.24
2022-08-03T22:34:41.918Z,22.33
2022-08-03T22:37:09.376Z,22.34
2022-08-03T22:39:37.366Z,22.33
2022-08-03T22:42:05.305Z,22.47
2022-08-03T22:44:34.245Z,22.19
2022-08-03T22:47:02.047Z,22.25
2022-08-03T22:49:29.479Z,22.18
2022-08-03T22:51:56.870Z,21.96
2022-08-03T22:54:24.452Z,21.95
2022-08-03T22:56:52.087Z,22.16
2022-08-03T22:59:40.935Z,22.36
2022-08-03T23:02:20.086Z,22.39
2022-08-03T23:04:53.127Z,22.35
2022-08-03T23:07:21.879Z,22.32
2022-08-03T23:09:49.497Z,21.95
2022-08-03T23:12:17.964Z,21.97
2022-08-03T23:14:47.662Z,22.09
2022-08-03T23:17:15.366Z,22.23
2022-08-03T23:19:44.654Z,22.08
2022-08-03T23:22:29.365Z,22.05
2022-08-03T23:24:58.682Z,21.98
2022-08-03T23:27:26.851Z,21.90
2022-08-03T23:29:54.419Z,22.16
2022-08-03T23:32:21.791Z,21.97
2022-08-03T23:35:07.904Z,22.00
2022-08-03T23:38:07.230Z,22.11
2022-08-03T23:40:26.530Z,22.02
2022-08-03T23:42:54.040Z,22.16
2022-08-03T23:45:21.397Z,22.12
2022-08-03T23:47:50.470Z,22.05
2022-08-03T23:50:17.945Z,22.13
2022-08-03T23:52:45.305Z,22.10
2022-08-03T23:55:41.919Z,21.79
2022-08-03T23:58:12.406Z,21.74
